createdAt,value
2022-08-20T00:00:55.161Z,77.95
2022-08-20T00:01:55.884Z,77.75
2022-08-20T00:02:54.833Z,76.54
2022-08-20T00:03:54.803Z,73.33
2022-08-20T00:04:54.803Z,76.45
2022-08-20T00:05:55.984Z,74.94
2022-08-20T00:06:54.784Z,76.15
2022-08-20T00:07:55.013Z,77.65
2022-08-20T00:08:54.763Z,73.74
2022-08-20T00:09:54.743Z,77.35
2022-08-20T00:10:55.773Z,78.15
2022-08-20T00:11:54.713Z,78.25
2022-08-20T00:12:54.715Z,78.66
2022-08-20T00:13:54.692Z,78.29
2022-08-20T00:14:54.700Z,78.49
2022-08-20T00:15:54.663Z,79.29
2022-08-20T00:16:54.674Z,78.69
2022-08-20T00:17:55.800Z,78.99
2022-08-20T00:18:54.653Z,77.39
2022-08-20T00:19:54.625Z,79.29
2022-08-20T00:20:54.639Z,79.60
2022-08-20T00:21:55.729Z,79.49
2022-08-20T00:22:54.605Z,79.39
2022-08-20T00:23:54.583Z,79.99
2022-08-20T00:24:54.585Z,79.33
2022-08-20T00:25:54.676Z,79.63
2022-08-20T00:26:54.564Z,80.24
2022-08-20T00:27:54.571Z,80.24
2022-08-20T00:28:54.542Z,80.13
2022-08-20T00:29:54.506Z,80.74
2022-08-20T00:30:54.511Z,81.14
2022-08-20T00:31:54.484Z,81.14
2022-08-20T00:32:54.527Z,81.04
2022-08-20T00:33:54.495Z,81.58
2022-08-20T00:34:54.475Z,81.07
2022-08-20T00:35:54.442Z,80.47
2022-08-20T00:36:54.443Z,80.37
2022-08-20T00:37:57.440Z,80.88
2022-08-20T00:38:55.431Z,81.18
2022-08-20T00:39:54.444Z,81.38
2022-08-20T00:40:54.395Z,81.88
2022-08-20T00:41:54.374Z,81.48
2022-08-20T00:42:54.374Z,82.08
2022-08-20T00:43:54.353Z,82.18
2022-08-20T00:44:54.359Z,79.77
2022-08-20T00:45:54.325Z,80.77
2022-08-20T00:46:54.326Z,81.88
2022-08-20T00:47:54.297Z,81.98
2022-08-20T00:48:54.536Z,81.58
2022-08-20T00:49:54.288Z,80.27
2022-08-20T00:50:54.295Z,81.88
2022-08-20T00:51:54.255Z,81.07
2022-08-20T00:52:54.268Z,81.88
2022-08-20T00:53:54.235Z,82.08
2022-08-20T00:54:54.244Z,81.58
2022-08-20T00:55:54.216Z,82.28
2022-08-20T00:56:54.224Z,82.28
2022-08-20T00:58:00.712Z,81.27
2022-08-20T00:58:55.194Z,81.98
2022-08-20T00:59:54.167Z,81.48
2022-08-20T01:00:54.176Z,82.48
2022-08-20T01:01:56.314Z,79.37
2022-08-20T01:02:54.159Z,81.58
2022-08-20T01:03:54.128Z,82.38
2022-08-20T01:04:54.126Z,81.78
2022-08-20T01:05:54.100Z,81.38
2022-08-20T01:06:54.196Z,80.07
2022-08-20T01:07:54.086Z,81.27
2022-08-20T01:08:54.086Z,81.78
2022-08-20T01:09:59.184Z,81.38
2022-08-20T01:10:55.064Z,82.48
2022-08-20T01:11:54.038Z,82.08
2022-08-20T01:12:58.947Z,79.37
2022-08-20T01:13:55.007Z,80.57
2022-08-20T01:14:54.016Z,82.18
2022-08-20T01:15:53.988Z,82.78
2022-08-20T01:16:53.996Z,82.89
2022-08-20T01:17:53.959Z,82.89
2022-08-20T01:18:53.982Z,82.98
2022-08-20T01:19:53.947Z,83.18
2022-08-20T01:20:53.947Z,83.09
2022-08-20T01:21:54.669Z,83.18
2022-08-20T01:22:53.946Z,83.18
2022-08-20T01:23:53.898Z,83.29
2022-08-20T01:24:53.908Z,83.18
2022-08-20T01:25:53.885Z,83.29
2022-08-20T01:26:53.906Z,83.29
2022-08-20T01:27:55.573Z,83.29
2022-08-20T01:28:53.849Z,83.29
2022-08-20T01:29:53.828Z,83.18
2022-08-20T01:30:53.837Z,82.78
2022-08-20T01:31:53.809Z,83.18
2022-08-20T01:32:54.150Z,83.09
2022-08-20T01:33:53.780Z,83.18
2022-08-20T01:34:53.787Z,83.18
2022-08-20T01:35:53.758Z,83.29
2022-08-20T01:36:53.789Z,83.09
2022-08-20T01:37:53.753Z,82.78
2022-08-20T01:38:54.534Z,82.89
2022-08-20T01:39:53.795Z,83.09
2022-08-20T01:40:53.700Z,80.17
2022-08-20T01:41:53.710Z,78.86
2022-08-20T01:42:59.314Z,81.27
2022-08-20T01:43:54.688Z,82.28
2022-08-20T01:44:53.658Z,82.78
2022-08-20T01:45:53.658Z,82.89
2022-08-20T01:46:53.636Z,82.78
2022-08-20T01:47:53.639Z,82.89
2022-08-20T01:48:53.610Z,83.29
2022-08-20T01:49:53.611Z,83.18
2022-08-20T01:50:53.590Z,83.18
2022-08-20T01:51:53.593Z,83.39
2022-08-20T01:52:53.570Z,83.49
2022-08-20T01:53:53.560Z,82.28
2022-08-20T01:54:53.550Z,81.78
2022-08-20T01:55:53.552Z,82.89
2022-08-20T01:56:53.519Z,83.18
2022-08-20T01:57:53.518Z,83.39
2022-08-20T01:58:56.182Z,83.39
2022-08-20T01:59:54.501Z,82.98
2022-08-20T02:00:53.471Z,81.98
2022-08-20T02:01:53.524Z,82.89
2022-08-20T02:02:53.451Z,83.39
2022-08-20T02:03:53.481Z,83.39
2022-08-20T02:04:53.430Z,83.49
2022-08-20T02:05:53.430Z,83.39
2022-08-20T02:06:56.844Z,83.39
2022-08-20T02:07:53.411Z,83.18
2022-08-20T02:08:53.544Z,83.49
2022-08-20T02:09:53.831Z,82.78
2022-08-20T02:10:53.367Z,83.29
2022-08-20T02:11:54.021Z,83.59
2022-08-20T02:12:53.382Z,83.59
2022-08-20T02:13:53.339Z,83.39
2022-08-20T02:14:53.314Z,83.59
2022-08-20T02:15:53.322Z,83.79
2022-08-20T02:16:54.755Z,83.69
2022-08-20T02:17:53.321Z,82.89
2022-08-20T02:18:53.271Z,82.08
2022-08-20T02:19:53.263Z,81.98
2022-08-20T02:20:53.271Z,83.29
2022-08-20T02:21:53.471Z,83.89
2022-08-20T02:22:55.199Z,83.89
2022-08-20T02:23:53.232Z,83.69
2022-08-20T02:24:53.202Z,82.98
2022-08-20T02:25:53.203Z,83.49
2022-08-20T02:26:53.182Z,83.89
2022-08-20T02:27:53.180Z,83.99
2022-08-20T02:28:53.154Z,84.09
2022-08-20T02:29:53.162Z,84.19
2022-08-20T02:30:53.135Z,84.19
2022-08-20T02:32:28.339Z,84.09
2022-08-20T02:32:55.238Z,84.19
2022-08-20T02:34:18.498Z,84.29
2022-08-20T02:34:54.084Z,84.09
2022-08-20T02:35:53.102Z,84.29
2022-08-20T02:36:53.063Z,84.19
2022-08-20T02:37:53.063Z,84.29
2022-08-20T02:38:53.103Z,84.19
2022-08-20T02:39:53.102Z,84.29
2022-08-20T02:40:53.321Z,84.29
2022-08-20T02:41:53.761Z,84.09
2022-08-20T02:42:53.072Z,83.79
2022-08-20T02:43:52.993Z,84.09
2022-08-20T02:44:53.245Z,82.48
2022-08-20T02:45:52.973Z,83.18
2022-08-20T02:46:53.584Z,83.29
2022-08-20T02:47:52.988Z,83.69
2022-08-20T02:48:52.934Z,83.89
2022-08-20T02:49:53.294Z,83.99
2022-08-20T02:50:52.915Z,84.09
2022-08-20T02:51:52.905Z,83.49
2022-08-20T02:52:52.890Z,83.79
2022-08-20T02:53:52.895Z,83.99
2022-08-20T02:54:52.865Z,83.69
2022-08-20T02:55:53.589Z,83.69
2022-08-20T02:56:52.856Z,83.49
2022-08-20T02:57:52.835Z,83.89
2022-08-20T02:58:52.816Z,83.89
2022-08-20T02:59:52.816Z,83.89
2022-08-20T03:00:53.614Z,83.18
2022-08-20T03:02:00.473Z,83.29
2022-08-20T03:02:53.804Z,83.09
2022-08-20T03:03:52.781Z,82.22
2022-08-20T03:04:52.757Z,82.98
2022-08-20T03:05:52.748Z,83.53
2022-08-20T03:06:52.718Z,83.43
2022-08-20T03:07:52.767Z,81.72
2022-08-20T03:08:52.707Z,81.82
2022-08-20T03:09:52.723Z,83.73
2022-08-20T03:10:52.686Z,84.03
2022-08-20T03:11:52.716Z,84.33
2022-08-20T03:12:52.646Z,84.83
2022-08-20T03:13:52.646Z,80.01
2022-08-20T03:14:52.626Z,77.80
2022-08-20T03:15:57.971Z,81.12
2022-08-20T03:16:53.616Z,78.36
2022-08-20T03:17:53.377Z,81.38
2022-08-20T03:18:52.597Z,83.09
2022-08-20T03:19:52.584Z,82.89
2022-08-20T03:20:52.560Z,84.09
2022-08-20T03:21:52.707Z,84.80
2022-08-20T03:22:52.704Z,84.89
2022-08-20T03:23:53.311Z,85.70
2022-08-20T03:24:52.520Z,86.20
2022-08-20T03:25:52.710Z,85.60
2022-08-20T03:26:52.498Z,85.70
2022-08-20T03:27:54.115Z,86.34
2022-08-20T03:28:53.227Z,86.54
2022-08-20T03:29:53.249Z,86.65
2022-08-20T03:30:52.477Z,86.85
2022-08-20T03:31:52.449Z,87.24
2022-08-20T03:32:52.417Z,87.35
2022-08-20T03:33:53.843Z,87.35
2022-08-20T03:34:52.717Z,87.15
2022-08-20T03:35:52.415Z,86.88
2022-08-20T03:36:52.378Z,87.39
2022-08-20T03:37:52.382Z,87.39
2022-08-20T03:38:52.356Z,87.99
2022-08-20T03:39:53.208Z,88.29
2022-08-20T03:40:52.359Z,88.29
2022-08-20T03:41:53.117Z,88.39
2022-08-20T03:42:52.330Z,88.59
2022-08-20T03:43:53.067Z,88.49
2022-08-20T03:44:58.713Z,88.79
2022-08-20T03:45:53.513Z,89.10
2022-08-20T03:46:53.039Z,88.90
2022-08-20T03:47:52.324Z,89.00
2022-08-20T03:48:59.883Z,88.74
2022-08-20T03:49:53.239Z,88.84
2022-08-20T03:50:53.158Z,89.44
2022-08-20T03:51:57.531Z,89.95
2022-08-20T03:52:53.199Z,90.05
2022-08-20T03:53:52.199Z,89.64
2022-08-20T03:54:52.169Z,89.64
2022-08-20T03:55:53.937Z,90.05
2022-08-20T03:56:52.189Z,90.15
2022-08-20T03:57:52.274Z,90.45
2022-08-20T03:58:52.129Z,90.45
2022-08-20T03:59:58.071Z,90.25
2022-08-20T04:00:53.162Z,90.34
2022-08-20T04:01:52.173Z,90.65
2022-08-20T04:02:53.041Z,90.75
2022-08-20T04:03:55.123Z,90.55
2022-08-20T04:04:52.084Z,89.95
2022-08-20T04:05:52.069Z,87.93
2022-08-20T04:06:52.908Z,87.23
2022-08-20T04:07:52.868Z,87.23
2022-08-20T04:08:52.059Z,87.63
2022-08-20T04:09:52.740Z,87.93
2022-08-20T04:10:51.991Z,88.64
2022-08-20T04:11:52.022Z,89.04
2022-08-20T04:12:53.171Z,88.54
2022-08-20T04:13:52.762Z,88.13
2022-08-20T04:14:51.941Z,88.43
2022-08-20T04:15:51.948Z,88.94
2022-08-20T04:16:52.734Z,89.24
2022-08-20T04:17:52.000Z,88.43
2022-08-20T04:19:01.492Z,86.32
2022-08-20T04:19:52.901Z,86.83
2022-08-20T04:20:51.871Z,87.93
2022-08-20T04:21:52.611Z,89.14
2022-08-20T04:22:59.405Z,89.44
2022-08-20T04:23:52.867Z,89.64
2022-08-20T04:24:51.861Z,89.95
2022-08-20T04:25:51.840Z,90.25
2022-08-20T04:26:51.802Z,90.25
2022-08-20T04:27:52.620Z,90.45
2022-08-20T04:28:51.822Z,89.95
2022-08-20T04:29:52.492Z,89.14
2022-08-20T04:30:52.104Z,90.15
2022-08-20T04:31:51.763Z,90.55
2022-08-20T04:32:51.950Z,91.15
2022-08-20T04:33:51.759Z,91.35
2022-08-20T04:34:52.032Z,91.35
2022-08-20T04:35:51.719Z,91.46
2022-08-20T04:36:51.682Z,91.66
2022-08-20T04:37:51.744Z,91.75
2022-08-20T04:38:52.222Z,91.66
2022-08-20T04:39:52.284Z,91.30
2022-08-20T04:40:52.042Z,91.39
2022-08-20T04:41:51.652Z,91.39
2022-08-20T04:42:51.838Z,91.30
2022-08-20T04:43:52.437Z,91.60
2022-08-20T04:44:51.755Z,91.80
2022-08-20T04:45:51.803Z,91.60
2022-08-20T04:46:51.603Z,91.50
2022-08-20T04:47:51.696Z,91.60
2022-08-20T04:48:51.546Z,91.80
2022-08-20T04:49:51.554Z,91.50
2022-08-20T04:50:53.296Z,90.99
2022-08-20T04:51:51.807Z,91.39
2022-08-20T04:52:52.338Z,91.39
2022-08-20T04:53:53.341Z,91.39
2022-08-20T04:54:51.483Z,91.39
2022-08-20T04:55:51.481Z,91.60
2022-08-20T04:56:51.479Z,91.50
2022-08-20T04:57:52.320Z,91.70
2022-08-20T04:58:51.492Z,91.60
2022-08-20T04:59:51.434Z,91.70
2022-08-20T05:00:51.442Z,91.90
2022-08-20T05:01:51.413Z,92.00
2022-08-20T05:02:52.140Z,91.80
2022-08-20T05:03:52.161Z,91.80
2022-08-20T05:04:51.384Z,91.96
2022-08-20T05:05:51.434Z,92.00
2022-08-20T05:06:51.345Z,91.96
2022-08-20T05:07:52.203Z,91.30
2022-08-20T05:08:51.346Z,91.30
2022-08-20T05:09:51.340Z,91.50
2022-08-20T05:10:54.119Z,91.60
2022-08-20T05:11:53.086Z,91.50
2022-08-20T05:12:56.642Z,91.60
2022-08-20T05:13:53.007Z,91.90
2022-08-20T05:14:51.266Z,91.90
2022-08-20T05:15:51.254Z,91.90
2022-08-20T05:16:51.706Z,91.80
2022-08-20T05:17:51.738Z,91.80
2022-08-20T05:18:52.787Z,92.00
2022-08-20T05:19:51.251Z,91.90
2022-08-20T05:20:51.186Z,91.80
2022-08-20T05:21:51.187Z,91.90
2022-08-20T05:22:51.155Z,91.80
2022-08-20T05:23:51.235Z,91.50
2022-08-20T05:24:51.145Z,91.80
2022-08-20T05:25:51.863Z,91.70
2022-08-20T05:26:51.135Z,91.09
2022-08-20T05:27:51.126Z,91.19
2022-08-20T05:28:58.335Z,91.70
2022-08-20T05:29:52.133Z,91.80
2022-08-20T05:30:51.087Z,89.99
2022-08-20T05:31:51.074Z,88.78
2022-08-20T05:32:51.515Z,88.98
2022-08-20T05:33:51.059Z,88.88
2022-08-20T05:34:51.026Z,88.18
2022-08-20T05:35:51.037Z,89.75
2022-08-20T05:36:51.006Z,89.75
2022-08-20T05:37:51.169Z,89.75
2022-08-20T05:38:50.982Z,90.25
2022-08-20T05:39:51.005Z,90.45
2022-08-20T05:40:50.973Z,90.45
2022-08-20T05:41:50.974Z,90.34
2022-08-20T05:42:50.936Z,90.11
2022-08-20T05:43:51.558Z,89.90
2022-08-20T05:44:50.926Z,90.20
2022-08-20T05:45:54.712Z,90.11
2022-08-20T05:46:52.777Z,89.90
2022-08-20T05:47:55.431Z,89.60
2022-08-20T05:48:51.877Z,89.50
2022-08-20T05:49:50.895Z,89.40
2022-08-20T05:50:50.837Z,87.69
2022-08-20T05:51:50.837Z,88.35
2022-08-20T05:52:50.818Z,88.05
2022-08-20T05:53:50.819Z,87.85
2022-08-20T05:54:50.807Z,88.15
2022-08-20T05:55:50.797Z,88.41
2022-08-20T05:56:50.786Z,87.71
2022-08-20T05:57:50.760Z,87.10
2022-08-20T05:58:51.149Z,87.21
2022-08-20T05:59:50.738Z,85.39
2022-08-20T06:00:50.781Z,84.55
2022-08-20T06:01:50.717Z,84.55
2022-08-20T06:02:50.718Z,84.55
2022-08-20T06:03:50.709Z,84.71
2022-08-20T06:04:56.167Z,85.11
2022-08-20T06:05:52.239Z,85.38
2022-08-20T06:06:50.749Z,85.68
2022-08-20T06:07:50.693Z,84.83
2022-08-20T06:08:50.749Z,84.13
2022-08-20T06:09:50.636Z,83.99
2022-08-20T06:10:50.662Z,81.79
2022-08-20T06:11:50.599Z,81.48
2022-08-20T06:12:50.606Z,81.85
2022-08-20T06:13:50.587Z,81.45
2022-08-20T06:14:50.578Z,75.90
2022-08-20T06:15:50.558Z,75.20
2022-08-20T06:16:57.860Z,79.06
2022-08-20T06:17:58.322Z,75.67
2022-08-20T06:18:51.599Z,78.97
2022-08-20T06:19:50.508Z,78.56
2022-08-20T06:20:50.525Z,79.17
2022-08-20T06:21:50.479Z,77.86
2022-08-20T06:22:50.487Z,78.86
2022-08-20T06:23:56.723Z,78.86
2022-08-20T06:24:51.527Z,78.97
2022-08-20T06:25:51.339Z,79.06
2022-08-20T06:26:51.240Z,78.91
2022-08-20T06:27:50.438Z,79.60
2022-08-20T06:28:50.430Z,79.71
2022-08-20T06:29:50.411Z,78.00
2022-08-20T06:30:51.111Z,79.24
2022-08-20T06:31:50.383Z,79.85
2022-08-20T06:32:50.380Z,79.44
2022-08-20T06:33:50.558Z,79.74
2022-08-20T06:34:51.139Z,79.14
2022-08-20T06:35:51.013Z,77.94
2022-08-20T06:36:50.343Z,79.14
2022-08-20T06:37:50.302Z,79.24
2022-08-20T06:38:50.309Z,78.54
2022-08-20T06:39:50.328Z,77.14
2022-08-20T06:40:50.282Z,77.14
2022-08-20T06:41:50.290Z,73.23
2022-08-20T06:42:50.260Z,75.54
2022-08-20T06:43:50.240Z,77.30
2022-08-20T06:44:50.271Z,78.10
2022-08-20T06:45:50.239Z,77.50
2022-08-20T06:46:50.260Z,77.30
2022-08-20T06:47:50.223Z,78.30
2022-08-20T06:48:50.201Z,78.54
2022-08-20T06:49:50.170Z,77.94
2022-08-20T06:50:50.172Z,77.34
2022-08-20T06:51:50.152Z,78.34
2022-08-20T06:52:52.759Z,79.04
2022-08-20T06:53:50.130Z,79.94
2022-08-20T06:54:50.159Z,80.15
2022-08-20T06:55:50.102Z,80.68
2022-08-20T06:56:50.101Z,80.58
2022-08-20T06:57:50.081Z,80.79
2022-08-20T06:58:50.087Z,80.28
2022-08-20T06:59:54.089Z,80.18
2022-08-20T07:00:50.136Z,80.28
2022-08-20T07:01:50.031Z,80.08
2022-08-20T07:02:50.110Z,79.38
2022-08-20T07:03:55.585Z,79.78
2022-08-20T07:04:51.022Z,79.68
2022-08-20T07:05:49.994Z,74.67
2022-08-20T07:06:50.003Z,76.37
2022-08-20T07:07:49.972Z,77.17
2022-08-20T07:08:50.808Z,79.88
2022-08-20T07:09:50.042Z,75.57
2022-08-20T07:10:50.053Z,78.58
2022-08-20T07:11:50.411Z,79.38
2022-08-20T07:12:50.056Z,78.98
2022-08-20T07:13:49.932Z,78.58
2022-08-20T07:14:49.951Z,74.27
2022-08-20T07:15:50.302Z,77.48
2022-08-20T07:16:49.893Z,77.08
2022-08-20T07:17:49.881Z,77.78
2022-08-20T07:18:49.957Z,76.57
2022-08-20T07:19:50.314Z,77.08
2022-08-20T07:20:49.833Z,75.67
2022-08-20T07:21:50.054Z,77.98
2022-08-20T07:22:50.073Z,78.98
2022-08-20T07:23:50.242Z,79.08
2022-08-20T07:24:49.785Z,78.48
2022-08-20T07:25:49.895Z,78.68
2022-08-20T07:26:50.302Z,78.61
2022-08-20T07:27:49.845Z,74.20
2022-08-20T07:28:49.974Z,78.92
2022-08-20T07:29:49.826Z,76.81
2022-08-20T07:30:57.104Z,75.01
2022-08-20T07:31:50.755Z,77.67
2022-08-20T07:32:49.914Z,73.86
2022-08-20T07:33:50.470Z,75.37
2022-08-20T07:34:49.865Z,75.47
2022-08-20T07:35:49.716Z,76.28
2022-08-20T07:36:49.737Z,78.38
2022-08-20T07:37:49.849Z,77.78
2022-08-20T07:38:49.910Z,78.08
2022-08-20T07:39:49.715Z,77.78
2022-08-20T07:40:49.707Z,75.07
2022-08-20T07:41:56.494Z,78.08
2022-08-20T07:42:50.707Z,78.81
2022-08-20T07:43:49.557Z,78.61
2022-08-20T07:44:49.566Z,75.91
2022-08-20T07:45:49.836Z,76.91
2022-08-20T07:46:49.545Z,76.91
2022-08-20T07:47:49.528Z,74.90
2022-08-20T07:48:49.528Z,75.41
2022-08-20T07:49:49.496Z,74.27
2022-08-20T07:50:49.486Z,75.57
2022-08-20T07:51:49.475Z,76.17
2022-08-20T07:52:49.518Z,77.67
2022-08-20T07:53:49.464Z,73.67
2022-08-20T07:54:49.448Z,76.98
2022-08-20T07:55:58.778Z,79.48
2022-08-20T07:56:50.428Z,79.78
2022-08-20T07:57:49.407Z,80.18
2022-08-20T07:58:49.418Z,80.22
2022-08-20T07:59:49.406Z,80.62
2022-08-20T08:00:49.482Z,80.86
2022-08-20T08:01:49.358Z,78.25
2022-08-20T08:02:49.448Z,81.76
2022-08-20T08:03:50.752Z,81.73
2022-08-20T08:04:49.347Z,80.92
2022-08-20T08:05:49.317Z,80.12
2022-08-20T08:06:49.319Z,80.52
2022-08-20T08:07:49.291Z,81.62
2022-08-20T08:08:49.288Z,81.26
2022-08-20T08:09:49.268Z,82.06
2022-08-20T08:10:49.278Z,81.36
2022-08-20T08:11:49.287Z,82.00
2022-08-20T08:12:49.306Z,82.97
2022-08-20T08:13:49.228Z,83.87
2022-08-20T08:14:49.231Z,83.47
2022-08-20T08:15:49.203Z,82.06
2022-08-20T08:16:49.287Z,81.06
2022-08-20T08:17:49.189Z,80.46
2022-08-20T08:18:49.190Z,80.16
2022-08-20T08:19:49.160Z,80.56
2022-08-20T08:20:49.168Z,82.20
2022-08-20T08:21:49.142Z,80.60
2022-08-20T08:22:49.154Z,82.51
2022-08-20T08:23:49.130Z,82.40
2022-08-20T08:24:56.684Z,81.20
2022-08-20T08:25:50.090Z,81.40
2022-08-20T08:26:49.097Z,82.81
2022-08-20T08:27:49.079Z,83.71
2022-08-20T08:28:49.889Z,84.31
2022-08-20T08:29:49.090Z,83.61
2022-08-20T08:30:49.053Z,83.51
2022-08-20T08:31:49.028Z,83.91
2022-08-20T08:32:49.029Z,83.95
2022-08-20T08:33:49.002Z,85.05
2022-08-20T08:34:49.010Z,83.65
2022-08-20T08:35:48.980Z,84.15
2022-08-20T08:36:48.988Z,82.14
2022-08-20T08:37:48.951Z,83.35
2022-08-20T08:38:48.960Z,84.55
2022-08-20T08:39:48.951Z,84.91
2022-08-20T08:40:48.939Z,84.01
2022-08-20T08:41:48.919Z,84.11
2022-08-20T08:42:48.930Z,84.37
2022-08-20T08:43:48.904Z,82.76
2022-08-20T08:44:48.892Z,83.37
2022-08-20T08:45:48.872Z,82.97
2022-08-20T08:46:48.960Z,80.72
2022-08-20T08:47:48.850Z,76.81
2022-08-20T08:48:49.641Z,80.58
2022-08-20T08:49:48.842Z,75.27
2022-08-20T08:50:53.241Z,77.28
2022-08-20T08:51:49.811Z,79.58
2022-08-20T08:52:48.823Z,79.74
2022-08-20T08:53:48.771Z,76.04
2022-08-20T08:54:48.788Z,79.74
2022-08-20T08:55:48.767Z,78.64
2022-08-20T08:56:50.109Z,79.24
2022-08-20T08:57:48.741Z,78.64
2022-08-20T08:58:48.774Z,74.63
2022-08-20T09:00:02.426Z,76.70
2022-08-20T09:00:52.757Z,74.56
2022-08-20T09:01:53.969Z,77.97
2022-08-20T09:02:49.800Z,77.30
2022-08-20T09:03:48.898Z,76.40
2022-08-20T09:04:48.673Z,78.50
2022-08-20T09:05:48.642Z,79.41
2022-08-20T09:06:52.177Z,78.54
2022-08-20T09:07:48.624Z,78.44
2022-08-20T09:08:48.662Z,79.44
2022-08-20T09:09:48.624Z,79.44
2022-08-20T09:10:48.852Z,79.88
2022-08-20T09:11:48.604Z,75.43
2022-08-20T09:12:48.573Z,77.14
2022-08-20T09:13:48.554Z,76.10
2022-08-20T09:14:48.559Z,77.70
2022-08-20T09:15:48.536Z,74.66
2022-08-20T09:16:52.956Z,76.97
2022-08-20T09:17:49.579Z,75.26
2022-08-20T09:18:48.504Z,76.53
2022-08-20T09:19:48.502Z,73.46
2022-08-20T09:20:48.499Z,75.67
2022-08-20T09:21:48.465Z,75.87
2022-08-20T09:22:48.472Z,74.06
2022-08-20T09:23:48.434Z,73.96
2022-08-20T09:24:48.444Z,76.60
2022-08-20T09:25:48.424Z,76.84
2022-08-20T09:26:48.425Z,76.64
2022-08-20T09:27:48.427Z,74.93
2022-08-20T09:28:52.130Z,76.37
2022-08-20T09:29:49.248Z,78.98
2022-08-20T09:30:49.275Z,75.87
2022-08-20T09:31:48.384Z,78.48
2022-08-20T09:32:48.377Z,77.24
2022-08-20T09:33:48.787Z,76.14
2022-08-20T09:34:48.326Z,77.48
2022-08-20T09:35:48.305Z,78.78
2022-08-20T09:36:49.127Z,79.12
2022-08-20T09:37:50.907Z,79.62
2022-08-20T09:38:48.295Z,78.92
2022-08-20T09:39:48.885Z,80.02
2022-08-20T09:40:48.262Z,81.38
2022-08-20T09:41:48.239Z,80.79
2022-08-20T09:42:48.258Z,77.84
2022-08-20T09:43:48.255Z,79.24
2022-08-20T09:44:48.214Z,79.24
2022-08-20T09:45:48.465Z,77.94
2022-08-20T09:46:48.195Z,76.64
2022-08-20T09:47:57.048Z,77.10
2022-08-20T09:48:49.171Z,77.80
2022-08-20T09:49:48.586Z,78.41
2022-08-20T09:50:48.932Z,76.80
2022-08-20T09:51:48.167Z,77.04
2022-08-20T09:52:48.125Z,77.20
2022-08-20T09:53:48.113Z,79.10
2022-08-20T09:54:48.937Z,78.41
2022-08-20T09:55:48.845Z,78.00
2022-08-20T09:56:48.095Z,78.80
2022-08-20T09:57:48.058Z,77.91
2022-08-20T09:58:48.077Z,77.80
2022-08-20T09:59:48.968Z,77.67
2022-08-20T10:00:48.076Z,76.87
2022-08-20T10:01:48.049Z,77.73
2022-08-20T10:02:48.037Z,76.93
2022-08-20T10:03:48.266Z,75.09
2022-08-20T10:04:48.747Z,75.79
2022-08-20T10:05:47.982Z,73.99
2022-08-20T10:06:47.988Z,76.09
2022-08-20T10:07:48.736Z,75.69
2022-08-20T10:08:48.751Z,75.76
2022-08-20T10:09:47.941Z,75.65
2022-08-20T10:10:47.968Z,74.46
2022-08-20T10:11:48.837Z,73.66
2022-08-20T10:12:52.797Z,71.42
2022-08-20T10:13:48.932Z,72.32
2022-08-20T10:14:48.145Z,73.58
2022-08-20T10:15:48.152Z,71.29
2022-08-20T10:16:48.619Z,71.39
2022-08-20T10:17:47.868Z,70.89
2022-08-20T10:18:47.826Z,70.89
2022-08-20T10:19:48.378Z,71.15
2022-08-20T10:20:48.611Z,71.06
2022-08-20T10:21:47.789Z,70.49
2022-08-20T10:22:47.770Z,71.92
2022-08-20T10:23:48.732Z,72.22
2022-08-20T10:24:48.619Z,71.52
2022-08-20T10:25:47.810Z,71.59
2022-08-20T10:26:47.749Z,71.45
2022-08-20T10:27:47.731Z,70.76
2022-08-20T10:28:48.500Z,69.96
2022-08-20T10:29:48.649Z,71.06
2022-08-20T10:30:48.817Z,70.42
2022-08-20T10:31:48.461Z,69.82
2022-08-20T10:32:47.750Z,70.49
2022-08-20T10:33:48.521Z,69.16
2022-08-20T10:34:47.649Z,69.13
2022-08-20T10:35:48.595Z,69.86
2022-08-20T10:36:47.621Z,70.83
2022-08-20T10:37:47.670Z,69.73
2022-08-20T10:38:47.659Z,70.09
2022-08-20T10:39:47.652Z,69.02
2022-08-20T10:40:54.619Z,68.70
2022-08-20T10:41:47.562Z,68.27
2022-08-20T10:42:47.562Z,67.33
2022-08-20T10:43:47.581Z,65.75
2022-08-20T10:44:47.551Z,66.74
2022-08-20T10:45:48.391Z,67.97
2022-08-20T10:46:47.521Z,68.23
2022-08-20T10:47:47.873Z,66.91
2022-08-20T10:48:47.569Z,65.98
2022-08-20T10:49:47.494Z,65.78
2022-08-20T10:50:47.503Z,65.75
2022-08-20T10:51:48.101Z,64.13
2022-08-20T10:52:47.913Z,63.73
2022-08-20T10:53:47.712Z,64.10
2022-08-20T10:54:48.223Z,62.29
2022-08-20T10:55:47.613Z,61.79
2022-08-20T10:56:47.423Z,64.93
2022-08-20T10:57:47.393Z,61.86
2022-08-20T10:58:47.424Z,59.58
2022-08-20T10:59:47.445Z,60.60
2022-08-20T11:00:48.233Z,58.64
2022-08-20T11:01:47.376Z,63.40
2022-08-20T11:02:48.054Z,62.58
2022-08-20T11:03:48.204Z,63.64
2022-08-20T11:04:47.314Z,64.31
2022-08-20T11:05:47.317Z,59.22
2022-08-20T11:06:47.283Z,59.52
2022-08-20T11:07:55.736Z,59.79
2022-08-20T11:08:48.285Z,58.50
2022-08-20T11:09:47.247Z,58.30
2022-08-20T11:10:47.255Z,60.71
2022-08-20T11:11:47.947Z,59.65
2022-08-20T11:12:48.105Z,56.70
2022-08-20T11:13:47.232Z,61.10
2022-08-20T11:14:47.329Z,61.29
2022-08-20T11:15:48.075Z,61.76
2022-08-20T11:16:47.245Z,62.62
2022-08-20T11:17:47.180Z,61.33
2022-08-20T11:18:52.474Z,59.15
2022-08-20T11:19:47.591Z,62.12
2022-08-20T11:20:47.862Z,59.75
2022-08-20T11:21:48.013Z,58.95
2022-08-20T11:22:47.184Z,59.45
2022-08-20T11:23:47.596Z,59.45
2022-08-20T11:24:47.596Z,60.96
2022-08-20T11:25:47.125Z,61.16
2022-08-20T11:26:47.104Z,61.59
2022-08-20T11:27:47.076Z,63.37
2022-08-20T11:28:47.229Z,61.29
2022-08-20T11:29:47.057Z,60.53
2022-08-20T11:30:47.236Z,59.83
2022-08-20T11:31:47.857Z,60.53
2022-08-20T11:32:47.728Z,62.51
2022-08-20T11:33:47.884Z,60.10
2022-08-20T11:34:47.676Z,62.48
2022-08-20T11:35:49.137Z,58.91
2022-08-20T11:36:46.958Z,58.69
2022-08-20T11:37:46.958Z,58.69
2022-08-20T11:38:47.037Z,58.98
2022-08-20T11:39:46.965Z,59.35
2022-08-20T11:40:47.156Z,56.68
2022-08-20T11:41:47.020Z,56.25
2022-08-20T11:43:11.067Z,59.03
2022-08-20T11:44:10.507Z,55.93
2022-08-20T11:44:47.874Z,54.14
2022-08-20T11:45:47.048Z,54.74
2022-08-20T11:46:47.158Z,54.54
2022-08-20T11:47:46.882Z,53.45
2022-08-20T11:48:47.526Z,57.71
2022-08-20T11:49:46.829Z,53.45
2022-08-20T11:50:46.878Z,56.02
2022-08-20T11:51:49.573Z,55.43
2022-08-20T11:52:47.529Z,58.47
2022-08-20T11:53:47.537Z,54.84
2022-08-20T11:54:46.759Z,54.86
2022-08-20T11:55:46.931Z,55.76
2022-08-20T11:56:46.741Z,55.46
2022-08-20T11:57:46.743Z,55.58
2022-08-20T11:58:46.710Z,55.39
2022-08-20T11:59:46.821Z,54.42
2022-08-20T12:00:46.869Z,58.39
2022-08-20T12:02:03.213Z,56.28
2022-08-20T12:02:47.901Z,55.11
2022-08-20T12:03:46.661Z,56.08
2022-08-20T12:04:46.641Z,55.88
2022-08-20T12:05:47.393Z,57.40
2022-08-20T12:06:46.621Z,55.21
2022-08-20T12:07:46.662Z,56.34
2022-08-20T12:08:46.603Z,57.45
2022-08-20T12:09:50.376Z,58.17
2022-08-20T12:10:46.890Z,58.74
2022-08-20T12:11:46.692Z,58.84
2022-08-20T12:12:46.692Z,57.82
2022-08-20T12:13:48.180Z,55.94
2022-08-20T12:14:46.605Z,58.61
2022-08-20T12:15:46.866Z,56.40
2022-08-20T12:16:47.349Z,54.32
2022-08-20T12:17:46.536Z,54.20
2022-08-20T12:18:46.483Z,57.23
2022-08-20T12:19:46.514Z,55.32
2022-08-20T12:20:46.482Z,55.81
2022-08-20T12:21:46.463Z,55.17
2022-08-20T12:22:47.295Z,55.47
2022-08-20T12:23:46.456Z,55.83
2022-08-20T12:24:46.423Z,54.52
2022-08-20T12:25:46.685Z,53.63
2022-08-20T12:26:47.404Z,54.00
2022-08-20T12:27:46.494Z,51.89
2022-08-20T12:28:46.504Z,52.49
2022-08-20T12:29:46.393Z,55.96
2022-08-20T12:30:46.529Z,53.75
2022-08-20T12:31:46.385Z,53.45
2022-08-20T12:32:47.084Z,51.67
2022-08-20T12:33:47.247Z,50.11
2022-08-20T12:34:46.743Z,51.50
2022-08-20T12:35:46.366Z,51.00
2022-08-20T12:36:46.284Z,53.20
2022-08-20T12:37:47.130Z,53.11
2022-08-20T12:38:46.326Z,57.20
2022-08-20T12:39:47.260Z,52.02
2022-08-20T12:40:46.924Z,51.30
2022-08-20T12:41:46.255Z,54.07
2022-08-20T12:42:46.295Z,51.99
2022-08-20T12:43:46.237Z,52.98
2022-08-20T12:44:46.246Z,50.90
2022-08-20T12:45:46.209Z,52.29
2022-08-20T12:46:46.428Z,50.01
2022-08-20T12:47:46.180Z,51.23
2022-08-20T12:48:46.157Z,52.61
2022-08-20T12:49:46.229Z,51.92
2022-08-20T12:50:46.158Z,53.31
2022-08-20T12:51:46.146Z,50.90
2022-08-20T12:52:46.140Z,51.40